createdAt,value
2019-03-09T00:04:37.000Z,40.6
2019-03-09T00:14:37.000Z,40.6
2019-03-09T00:24:37.000Z,41.3
2019-03-09T00:34:38.000Z,41.2
2019-03-09T00:44:38.000Z,41.4
2019-03-09T00:54:38.000Z,42
2019-03-09T01:04:38.000Z,41.9
2019-03-09T01:14:38.000Z,41.9
2019-03-09T01:24:38.000Z,42.3
2019-03-09T01:34:38.000Z,43
2019-03-09T01:54:39.000Z,43.5
2019-03-09T02:04:38.000Z,44.8
2019-03-09T02:14:38.000Z,44.7
2019-03-09T02:24:38.000Z,44.8
2019-03-09T02:34:38.000Z,45.2
2019-03-09T02:44:39.000Z,45.6
2019-03-09T02:54:38.000Z,45.7
2019-03-09T03:04:38.000Z,46.2
2019-03-09T03:14:38.000Z,46.7
2019-03-09T03:24:40.000Z,46.8
2019-03-09T03:34:38.000Z,47.2
2019-03-09T03:44:38.000Z,47.4
2019-03-09T03:54:38.000Z,47.3
2019-03-09T04:04:38.000Z,47.4
2019-03-09T04:14:38.000Z,47.3
2019-03-09T04:24:38.000Z,47.4
2019-03-09T04:34:38.000Z,47.5
2019-03-09T04:44:38.000Z,47.5
2019-03-09T04:54:38.000Z,47.7
2019-03-09T05:04:38.000Z,47.8
2019-03-09T05:14:38.000Z,47.4
2019-03-09T05:24:38.000Z,47.2
2019-03-09T05:34:38.000Z,46.9
2019-03-09T05:44:38.000Z,46.6
2019-03-09T05:54:38.000Z,46.2
2019-03-09T06:04:38.000Z,46
2019-03-09T06:14:38.000Z,46.2
2019-03-09T06:24:38.000Z,46.4
2019-03-09T06:34:38.000Z,46.1
2019-03-09T06:44:38.000Z,46.4
2019-03-09T06:54:38.000Z,46.6
2019-03-09T07:04:38.000Z,46.4
2019-03-09T07:14:38.000Z,46.4
2019-03-09T07:24:38.000Z,45.8
2019-03-09T07:34:38.000Z,46.1
2019-03-09T07:44:39.000Z,45.8
2019-03-09T07:54:39.000Z,48
2019-03-09T08:04:39.000Z,47.1
2019-03-09T08:14:40.000Z,46.8
2019-03-09T08:24:39.000Z,46.6
2019-03-09T08:34:39.000Z,49.3
2019-03-09T08:44:39.000Z,49.6
2019-03-09T08:54:39.000Z,50.3
2019-03-09T09:04:39.000Z,50.6
2019-03-09T09:14:39.000Z,50.7
2019-03-09T09:24:39.000Z,50.3
2019-03-09T09:34:39.000Z,49.6
2019-03-09T09:44:39.000Z,50.8
2019-03-09T09:54:39.000Z,51.3
2019-03-09T10:04:39.000Z,52
2019-03-09T10:14:39.000Z,52.2
2019-03-09T10:24:39.000Z,52.3
2019-03-09T10:34:40.000Z,51.8
2019-03-09T10:44:39.000Z,51.4
2019-03-09T10:54:39.000Z,51.4
2019-03-09T11:04:39.000Z,51.4
2019-03-09T11:14:39.000Z,51.6
2019-03-09T11:24:39.000Z,52.2
2019-03-09T11:34:39.000Z,52.4
2019-03-09T11:44:39.000Z,52.6
2019-03-09T11:54:39.000Z,52.6
2019-03-09T12:04:39.000Z,52.7
2019-03-09T12:14:39.000Z,52.7
2019-03-09T12:24:39.000Z,52.8
2019-03-09T12:34:39.000Z,52.9
2019-03-09T12:44:39.000Z,52.8
2019-03-09T12:54:39.000Z,52.9
2019-03-09T13:04:39.000Z,52.8
2019-03-09T13:14:39.000Z,52.7
2019-03-09T13:24:40.000Z,52.9
2019-03-09T13:34:39.000Z,52.9
2019-03-09T13:44:39.000Z,52.8
2019-03-09T13:54:39.000Z,52.8
2019-03-09T14:04:39.000Z,52.9
2019-03-09T14:14:39.000Z,52.9
2019-03-09T14:24:43.000Z,52.9
2019-03-09T14:34:39.000Z,53
2019-03-09T14:44:40.000Z,53
2019-03-09T14:54:40.000Z,53
2019-03-09T15:04:40.000Z,52.9
2019-03-09T15:14:41.000Z,53.4
2019-03-09T15:24:41.000Z,53.5
2019-03-09T15:34:40.000Z,53.2
2019-03-09T15:44:40.000Z,53.1
2019-03-09T15:54:40.000Z,53.3
2019-03-09T16:04:40.000Z,52.9
2019-03-09T16:14:40.000Z,53.9
2019-03-09T16:24:40.000Z,52.4
2019-03-09T16:34:40.000Z,52.2
2019-03-09T16:44:40.000Z,45.6
2019-03-09T16:54:40.000Z,51.3
2019-03-09T17:04:40.000Z,52
2019-03-09T17:14:40.000Z,52.3
2019-03-09T17:24:40.000Z,52.7
2019-03-09T17:34:40.000Z,52.9
2019-03-09T17:44:41.000Z,53
2019-03-09T17:54:40.000Z,53.1
2019-03-09T18:04:40.000Z,53.2
2019-03-09T18:14:42.000Z,53.1
2019-03-09T18:24:42.000Z,53.2
2019-03-09T18:34:40.000Z,50.8
2019-03-09T18:44:40.000Z,53
2019-03-09T18:54:40.000Z,52.9
2019-03-09T19:04:40.000Z,53
2019-03-09T19:14:40.000Z,52.9
2019-03-09T19:24:40.000Z,52.9
2019-03-09T19:34:40.000Z,52.9
2019-03-09T19:44:40.000Z,52.9
2019-03-09T19:54:40.000Z,52.9
2019-03-09T20:04:40.000Z,52.3
2019-03-09T20:14:40.000Z,52.4
2019-03-09T20:24:40.000Z,52.5
2019-03-09T20:34:41.000Z,52.6
2019-03-09T20:44:40.000Z,52.7
2019-03-09T20:54:40.000Z,52.6
2019-03-09T21:04:40.000Z,52.7
2019-03-09T21:14:40.000Z,52.7
2019-03-09T21:24:40.000Z,52.6
2019-03-09T21:34:41.000Z,52.6
2019-03-09T21:44:41.000Z,52.5
2019-03-09T21:54:41.000Z,52.5
2019-03-09T22:04:41.000Z,52.2
2019-03-09T22:14:41.000Z,52.3
2019-03-09T22:24:41.000Z,52.4
2019-03-09T22:34:41.000Z,52.3
2019-03-09T22:44:41.000Z,52.4
2019-03-09T22:54:41.000Z,52.4
2019-03-09T23:04:41.000Z,52.5
2019-03-09T23:14:41.000Z,52.4
2019-03-09T23:24:41.000Z,52.4
2019-03-09T23:34:41.000Z,52.3
2019-03-09T23:44:41.000Z,52.4
2019-03-09T23:54:43.000Z,52.4
